sensor_id;sensor_type;location;lat;lon;timestamp;P1;durP1;ratioP1;P2;durP2;ratioP2
21878;SDS011;27908;42.708;23.278;2023-12-04T00:01:24;9.50;;;3.97;;
21878;SDS011;27908;42.708;23.278;2023-12-04T00:03:51;10.30;;;4.03;;
21878;SDS011;27908;42.708;23.278;2023-12-04T00:06:18;9.10;;;4.10;;
21878;SDS011;27908;42.708;23.278;2023-12-04T00:08:43;9.23;;;3.70;;
21878;SDS011;27908;42.708;23.278;2023-12-04T00:11:09;6.40;;;2.70;;
21878;SDS011;27908;42.708;23.278;2023-12-04T00:13:35;10.20;;;3.80;;
21878;SDS011;27908;42.708;23.278;2023-12-04T00:16:00;11.27;;;4.00;;
21878;SDS011;27908;42.708;23.278;2023-12-04T00:18:26;8.93;;;3.77;;
21878;SDS011;27908;42.708;23.278;2023-12-04T00:20:51;9.00;;;4.10;;
21878;SDS011;27908;42.708;23.278;2023-12-04T00:23:17;10.27;;;3.47;;
21878;SDS011;27908;42.708;23.278;2023-12-04T00:25:43;11.90;;;4.93;;
21878;SDS011;27908;42.708;23.278;2023-12-04T00:28:08;8.43;;;3.70;;
21878;SDS011;27908;42.708;23.278;2023-12-04T00:30:34;10.00;;;3.50;;
21878;SDS011;27908;42.708;23.278;2023-12-04T00:33:00;9.48;;;3.58;;
21878;SDS011;27908;42.708;23.278;2023-12-04T00:35:25;12.00;;;5.07;;
21878;SDS011;27908;42.708;23.278;2023-12-04T00:37:51;10.83;;;4.73;;
21878;SDS011;27908;42.708;23.278;2023-12-04T00:40:16;8.60;;;3.30;;
21878;SDS011;27908;42.708;23.278;2023-12-04T00:42:42;10.77;;;3.53;;
21878;SDS011;27908;42.708;23.278;2023-12-04T00:45:07;10.10;;;3.80;;
21878;SDS011;27908;42.708;23.278;2023-12-04T00:47:33;8.75;;;4.30;;
21878;SDS011;27908;42.708;23.278;2023-12-04T00:49:59;7.57;;;2.97;;
21878;SDS011;27908;42.708;23.278;2023-12-04T00:52:24;10.57;;;4.40;;
21878;SDS011;27908;42.708;23.278;2023-12-04T00:54:49;9.53;;;4.13;;
21878;SDS011;27908;42.708;23.278;2023-12-04T00:57:15;9.43;;;3.73;;
21878;SDS011;27908;42.708;23.278;2023-12-04T00:59:40;10.67;;;5.23;;
21878;SDS011;27908;42.708;23.278;2023-12-04T01:02:06;9.65;;;4.20;;
21878;SDS011;27908;42.708;23.278;2023-12-04T01:04:32;8.63;;;3.70;;
21878;SDS011;27908;42.708;23.278;2023-12-04T01:06:58;7.82;;;3.25;;
21878;SDS011;27908;42.708;23.278;2023-12-04T01:09:23;10.10;;;4.20;;
21878;SDS011;27908;42.708;23.278;2023-12-04T01:11:52;10.63;;;3.83;;
21878;SDS011;27908;42.708;23.278;2023-12-04T01:14:19;11.27;;;4.53;;
21878;SDS011;27908;42.708;23.278;2023-12-04T01:16:44;11.68;;;3.85;;
21878;SDS011;27908;42.708;23.278;2023-12-04T01:19:10;10.85;;;5.10;;
21878;SDS011;27908;42.708;23.278;2023-12-04T01:21:36;11.40;;;4.27;;
21878;SDS011;27908;42.708;23.278;2023-12-04T01:24:01;11.10;;;5.20;;
21878;SDS011;27908;42.708;23.278;2023-12-04T01:26:27;9.18;;;3.38;;
21878;SDS011;27908;42.708;23.278;2023-12-04T01:28:52;11.97;;;3.97;;
21878;SDS011;27908;42.708;23.278;2023-12-04T01:31:18;10.00;;;3.97;;
21878;SDS011;27908;42.708;23.278;2023-12-04T01:33:43;9.55;;;3.72;;
21878;SDS011;27908;42.708;23.278;2023-12-04T01:36:09;8.57;;;3.15;;
21878;SDS011;27908;42.708;23.278;2023-12-04T01:38:34;9.27;;;3.50;;
21878;SDS011;27908;42.708;23.278;2023-12-04T01:41:01;10.20;;;4.35;;
21878;SDS011;27908;42.708;23.278;2023-12-04T01:43:26;11.80;;;4.43;;
21878;SDS011;27908;42.708;23.278;2023-12-04T01:45:53;12.20;;;5.22;;
21878;SDS011;27908;42.708;23.278;2023-12-04T01:48:19;10.77;;;5.18;;
21878;SDS011;27908;42.708;23.278;2023-12-04T01:50:45;10.10;;;3.28;;
21878;SDS011;27908;42.708;23.278;2023-12-04T01:53:11;9.65;;;4.90;;
21878;SDS011;27908;42.708;23.278;2023-12-04T01:55:37;10.90;;;4.13;;
21878;SDS011;27908;42.708;23.278;2023-12-04T01:58:03;8.82;;;3.13;;
21878;SDS011;27908;42.708;23.278;2023-12-04T02:00:33;9.20;;;3.70;;
21878;SDS011;27908;42.708;23.278;2023-12-04T02:02:59;10.63;;;5.35;;
21878;SDS011;27908;42.708;23.278;2023-12-04T02:05:25;9.43;;;4.05;;
21878;SDS011;27908;42.708;23.278;2023-12-04T02:07:52;10.27;;;3.70;;
21878;SDS011;27908;42.708;23.278;2023-12-04T02:10:18;9.82;;;3.40;;
21878;SDS011;27908;42.708;23.278;2023-12-04T02:12:44;9.52;;;3.95;;
21878;SDS011;27908;42.708;23.278;2023-12-04T02:15:09;11.10;;;3.97;;
21878;SDS011;27908;42.708;23.278;2023-12-04T02:17:35;7.20;;;2.70;;
21878;SDS011;27908;42.708;23.278;2023-12-04T02:20:02;10.93;;;4.45;;
21878;SDS011;27908;42.708;23.278;2023-12-04T02:22:29;9.07;;;3.25;;
21878;SDS011;27908;42.708;23.278;2023-12-04T02:24:54;6.60;;;3.03;;
21878;SDS011;27908;42.708;23.278;2023-12-04T02:27:25;8.75;;;3.42;;
21878;SDS011;27908;42.708;23.278;2023-12-04T02:29:59;6.35;;;2.50;;
21878;SDS011;27908;42.708;23.278;2023-12-04T02:32:30;10.15;;;4.78;;
21878;SDS011;27908;42.708;23.278;2023-12-04T02:34:59;8.82;;;4.22;;
21878;SDS011;27908;42.708;23.278;2023-12-04T02:37:27;12.27;;;3.42;;
21878;SDS011;27908;42.708;23.278;2023-12-04T02:39:53;6.85;;;3.13;;
21878;SDS011;27908;42.708;23.278;2023-12-04T02:42:20;8.73;;;3.42;;
21878;SDS011;27908;42.708;23.278;2023-12-04T02:44:47;9.45;;;4.20;;
21878;SDS011;27908;42.708;23.278;2023-12-04T02:47:12;10.13;;;4.77;;
21878;SDS011;27908;42.708;23.278;2023-12-04T02:49:38;10.85;;;3.88;;
21878;SDS011;27908;42.708;23.278;2023-12-04T02:52:04;8.60;;;3.67;;
21878;SDS011;27908;42.708;23.278;2023-12-04T02:54:29;8.77;;;4.30;;
21878;SDS011;27908;42.708;23.278;2023-12-04T02:56:55;8.37;;;3.23;;
21878;SDS011;27908;42.708;23.278;2023-12-04T02:59:20;10.17;;;4.33;;
21878;SDS011;27908;42.708;23.278;2023-12-04T03:01:46;9.97;;;3.60;;
21878;SDS011;27908;42.708;23.278;2023-12-04T03:04:11;8.45;;;4.18;;
21878;SDS011;27908;42.708;23.278;2023-12-04T03:06:37;8.80;;;3.93;;
21878;SDS011;27908;42.708;23.278;2023-12-04T03:09:03;9.55;;;3.50;;
21878;SDS011;27908;42.708;23.278;2023-12-04T03:11:29;9.23;;;3.43;;
21878;SDS011;27908;42.708;23.278;2023-12-04T03:13:55;10.50;;;4.18;;
21878;SDS011;27908;42.708;23.278;2023-12-04T03:16:21;9.17;;;3.27;;
21878;SDS011;27908;42.708;23.278;2023-12-04T03:18:46;8.73;;;3.28;;
21878;SDS011;27908;42.708;23.278;2023-12-04T03:21:12;10.57;;;3.60;;
21878;SDS011;27908;42.708;23.278;2023-12-04T03:23:38;8.88;;;4.45;;
21878;SDS011;27908;42.708;23.278;2023-12-04T03:26:03;9.70;;;4.07;;
21878;SDS011;27908;42.708;23.278;2023-12-04T03:28:29;10.90;;;4.60;;
21878;SDS011;27908;42.708;23.278;2023-12-04T03:30:54;11.65;;;4.70;;
21878;SDS011;27908;42.708;23.278;2023-12-04T03:33:20;10.00;;;4.47;;
21878;SDS011;27908;42.708;23.278;2023-12-04T03:35:46;8.47;;;3.40;;
21878;SDS011;27908;42.708;23.278;2023-12-04T03:38:12;11.73;;;4.70;;
21878;SDS011;27908;42.708;23.278;2023-12-04T03:40:37;12.10;;;5.77;;
21878;SDS011;27908;42.708;23.278;2023-12-04T03:43:03;8.43;;;3.70;;
21878;SDS011;27908;42.708;23.278;2023-12-04T03:45:28;9.33;;;3.33;;
21878;SDS011;27908;42.708;23.278;2023-12-04T03:47:54;9.20;;;3.30;;
21878;SDS011;27908;42.708;23.278;2023-12-04T03:50:19;13.20;;;4.70;;
21878;SDS011;27908;42.708;23.278;2023-12-04T03:52:45;7.43;;;2.73;;
21878;SDS011;27908;42.708;23.278;2023-12-04T03:55:10;8.50;;;4.30;;
21878;SDS011;27908;42.708;23.278;2023-12-04T03:57:36;9.30;;;3.87;;
21878;SDS011;27908;42.708;23.278;2023-12-04T04:00:02;9.35;;;3.92;;
21878;SDS011;27908;42.708;23.278;2023-12-04T04:02:28;9.70;;;4.32;;
21878;SDS011;27908;42.708;23.278;2023-12-04T04:04:54;9.48;;;4.60;;
21878;SDS011;27908;42.708;23.278;2023-12-04T04:07:20;8.57;;;3.47;;
21878;SDS011;27908;42.708;23.278;2023-12-04T04:09:45;8.23;;;3.33;;
21878;SDS011;27908;42.708;23.278;2023-12-04T04:12:11;12.32;;;4.32;;
21878;SDS011;27908;42.708;23.278;2023-12-04T04:14:37;9.90;;;4.17;;
21878;SDS011;27908;42.708;23.278;2023-12-04T04:17:03;11.05;;;4.13;;
21878;SDS011;27908;42.708;23.278;2023-12-04T04:19:28;9.33;;;2.87;;
21878;SDS011;27908;42.708;23.278;2023-12-04T04:21:54;8.13;;;3.33;;
21878;SDS011;27908;42.708;23.278;2023-12-04T04:24:19;7.90;;;3.60;;
21878;SDS011;27908;42.708;23.278;2023-12-04T04:26:45;8.20;;;3.08;;
21878;SDS011;27908;42.708;23.278;2023-12-04T04:29:11;10.80;;;3.97;;
21878;SDS011;27908;42.708;23.278;2023-12-04T04:31:36;6.53;;;3.03;;
21878;SDS011;27908;42.708;23.278;2023-12-04T04:34:01;6.30;;;2.50;;
21878;SDS011;27908;42.708;23.278;2023-12-04T04:36:27;8.90;;;2.95;;
21878;SDS011;27908;42.708;23.278;2023-12-04T04:38:52;9.67;;;3.43;;
21878;SDS011;27908;42.708;23.278;2023-12-04T04:41:18;8.80;;;3.40;;
21878;SDS011;27908;42.708;23.278;2023-12-04T04:43:43;7.93;;;3.90;;
21878;SDS011;27908;42.708;23.278;2023-12-04T04:46:09;6.00;;;2.58;;
21878;SDS011;27908;42.708;23.278;2023-12-04T04:48:35;7.77;;;3.20;;
21878;SDS011;27908;42.708;23.278;2023-12-04T04:51:00;9.75;;;3.95;;
21878;SDS011;27908;42.708;23.278;2023-12-04T04:53:25;9.23;;;4.22;;
21878;SDS011;27908;42.708;23.278;2023-12-04T04:55:51;11.53;;;4.43;;
21878;SDS011;27908;42.708;23.278;2023-12-04T04:58:17;9.10;;;4.23;;
21878;SDS011;27908;42.708;23.278;2023-12-04T05:00:43;10.07;;;3.90;;
21878;SDS011;27908;42.708;23.278;2023-12-04T05:03:09;11.77;;;4.55;;
21878;SDS011;27908;42.708;23.278;2023-12-04T05:05:34;10.80;;;4.40;;
21878;SDS011;27908;42.708;23.278;2023-12-04T05:08:00;10.40;;;3.37;;
21878;SDS011;27908;42.708;23.278;2023-12-04T05:10:25;9.77;;;3.63;;
21878;SDS011;27908;42.708;23.278;2023-12-04T05:12:51;11.00;;;3.80;;
21878;SDS011;27908;42.708;23.278;2023-12-04T05:15:16;9.13;;;4.13;;
21878;SDS011;27908;42.708;23.278;2023-12-04T05:17:42;8.40;;;3.50;;
21878;SDS011;27908;42.708;23.278;2023-12-04T05:20:07;8.07;;;3.95;;
21878;SDS011;27908;42.708;23.278;2023-12-04T05:22:34;8.97;;;3.17;;
21878;SDS011;27908;42.708;23.278;2023-12-04T05:25:00;7.82;;;3.40;;
21878;SDS011;27908;42.708;23.278;2023-12-04T05:27:26;11.00;;;4.57;;
21878;SDS011;27908;42.708;23.278;2023-12-04T05:29:52;9.52;;;4.07;;
21878;SDS011;27908;42.708;23.278;2023-12-04T05:32:17;10.70;;;3.85;;
21878;SDS011;27908;42.708;23.278;2023-12-04T05:34:43;8.10;;;2.90;;
21878;SDS011;27908;42.708;23.278;2023-12-04T05:37:08;8.60;;;4.07;;
21878;SDS011;27908;42.708;23.278;2023-12-04T05:39:34;8.17;;;3.20;;
21878;SDS011;27908;42.708;23.278;2023-12-04T05:41:59;12.47;;;4.23;;
21878;SDS011;27908;42.708;23.278;2023-12-04T05:44:25;8.60;;;3.60;;
21878;SDS011;27908;42.708;23.278;2023-12-04T05:46:50;8.30;;;3.15;;
21878;SDS011;27908;42.708;23.278;2023-12-04T05:49:16;10.73;;;4.68;;
21878;SDS011;27908;42.708;23.278;2023-12-04T05:51:41;8.63;;;4.00;;
21878;SDS011;27908;42.708;23.278;2023-12-04T05:54:07;11.73;;;4.63;;
21878;SDS011;27908;42.708;23.278;2023-12-04T05:56:34;13.73;;;4.65;;
21878;SDS011;27908;42.708;23.278;2023-12-04T05:58:59;11.20;;;5.37;;
21878;SDS011;27908;42.708;23.278;2023-12-04T06:01:25;10.10;;;3.90;;
21878;SDS011;27908;42.708;23.278;2023-12-04T06:03:50;11.10;;;4.68;;
21878;SDS011;27908;42.708;23.278;2023-12-04T06:06:16;8.27;;;3.67;;
21878;SDS011;27908;42.708;23.278;2023-12-04T06:08:41;8.60;;;3.67;;
21878;SDS011;27908;42.708;23.278;2023-12-04T06:11:06;12.33;;;5.60;;
21878;SDS011;27908;42.708;23.278;2023-12-04T06:13:32;9.05;;;3.70;;
21878;SDS011;27908;42.708;23.278;2023-12-04T06:15:57;12.10;;;4.80;;
21878;SDS011;27908;42.708;23.278;2023-12-04T06:18:23;9.83;;;4.37;;
21878;SDS011;27908;42.708;23.278;2023-12-04T06:20:49;9.25;;;4.13;;
21878;SDS011;27908;42.708;23.278;2023-12-04T06:23:14;8.47;;;4.00;;
21878;SDS011;27908;42.708;23.278;2023-12-04T06:25:40;12.13;;;5.43;;
21878;SDS011;27908;42.708;23.278;2023-12-04T06:28:07;9.30;;;4.23;;
21878;SDS011;27908;42.708;23.278;2023-12-04T06:30:33;10.75;;;3.95;;
21878;SDS011;27908;42.708;23.278;2023-12-04T06:32:59;10.63;;;4.45;;
21878;SDS011;27908;42.708;23.278;2023-12-04T06:35:25;11.33;;;4.10;;
21878;SDS011;27908;42.708;23.278;2023-12-04T06:37:52;10.60;;;4.13;;
21878;SDS011;27908;42.708;23.278;2023-12-04T06:40:19;12.25;;;5.10;;
21878;SDS011;27908;42.708;23.278;2023-12-04T06:42:45;9.70;;;4.38;;
21878;SDS011;27908;42.708;23.278;2023-12-04T06:45:10;11.05;;;4.75;;
21878;SDS011;27908;42.708;23.278;2023-12-04T06:47:36;8.87;;;3.37;;
21878;SDS011;27908;42.708;23.278;2023-12-04T06:50:05;9.43;;;2.95;;
21878;SDS011;27908;42.708;23.278;2023-12-04T06:52:31;9.75;;;3.90;;
21878;SDS011;27908;42.708;23.278;2023-12-04T06:54:56;7.13;;;3.03;;
21878;SDS011;27908;42.708;23.278;2023-12-04T06:57:21;10.23;;;4.13;;
21878;SDS011;27908;42.708;23.278;2023-12-04T06:59:47;11.00;;;5.05;;
21878;SDS011;27908;42.708;23.278;2023-12-04T07:02:12;9.23;;;3.87;;
21878;SDS011;27908;42.708;23.278;2023-12-04T07:04:38;9.27;;;3.63;;
21878;SDS011;27908;42.708;23.278;2023-12-04T07:07:04;11.90;;;3.80;;
21878;SDS011;27908;42.708;23.278;2023-12-04T07:09:33;9.73;;;4.65;;
21878;SDS011;27908;42.708;23.278;2023-12-04T07:12:02;10.07;;;4.43;;
21878;SDS011;27908;42.708;23.278;2023-12-04T07:14:28;7.00;;;3.03;;
21878;SDS011;27908;42.708;23.278;2023-12-04T07:16:53;9.32;;;3.33;;
21878;SDS011;27908;42.708;23.278;2023-12-04T07:19:19;9.27;;;4.13;;
21878;SDS011;27908;42.708;23.278;2023-12-04T07:21:45;6.78;;;2.58;;
21878;SDS011;27908;42.708;23.278;2023-12-04T07:24:10;10.00;;;4.03;;
21878;SDS011;27908;42.708;23.278;2023-12-04T07:26:36;11.48;;;3.95;;
21878;SDS011;27908;42.708;23.278;2023-12-04T07:29:03;13.27;;;4.70;;
21878;SDS011;27908;42.708;23.278;2023-12-04T07:31:28;11.43;;;4.65;;
21878;SDS011;27908;42.708;23.278;2023-12-04T07:33:54;10.43;;;3.97;;
21878;SDS011;27908;42.708;23.278;2023-12-04T07:36:21;12.32;;;3.78;;
21878;SDS011;27908;42.708;23.278;2023-12-04T07:38:46;20.23;;;4.30;;
21878;SDS011;27908;42.708;23.278;2023-12-04T07:41:12;7.57;;;3.78;;
21878;SDS011;27908;42.708;23.278;2023-12-04T07:43:39;10.05;;;4.10;;
21878;SDS011;27908;42.708;23.278;2023-12-04T07:46:04;8.50;;;4.22;;
21878;SDS011;27908;42.708;23.278;2023-12-04T07:48:30;10.13;;;3.40;;
21878;SDS011;27908;42.708;23.278;2023-12-04T07:50:56;12.07;;;4.20;;
21878;SDS011;27908;42.708;23.278;2023-12-04T07:53:22;8.80;;;3.87;;
21878;SDS011;27908;42.708;23.278;2023-12-04T07:55:48;7.82;;;3.38;;
21878;SDS011;27908;42.708;23.278;2023-12-04T07:58:16;8.93;;;3.53;;
21878;SDS011;27908;42.708;23.278;2023-12-04T08:00:42;8.43;;;3.50;;
21878;SDS011;27908;42.708;23.278;2023-12-04T08:03:08;9.52;;;4.22;;
21878;SDS011;27908;42.708;23.278;2023-12-04T08:05:34;7.70;;;3.33;;
21878;SDS011;27908;42.708;23.278;2023-12-04T08:07:59;7.95;;;3.55;;
21878;SDS011;27908;42.708;23.278;2023-12-04T08:10:25;9.97;;;4.13;;
21878;SDS011;27908;42.708;23.278;2023-12-04T08:12:50;10.73;;;3.23;;
21878;SDS011;27908;42.708;23.278;2023-12-04T08:15:16;10.30;;;3.97;;
21878;SDS011;27908;42.708;23.278;2023-12-04T08:17:41;9.90;;;3.63;;
21878;SDS011;27908;42.708;23.278;2023-12-04T08:20:07;9.20;;;3.63;;
21878;SDS011;27908;42.708;23.278;2023-12-04T08:22:38;8.82;;;3.63;;
21878;SDS011;27908;42.708;23.278;2023-12-04T08:25:08;6.55;;;2.45;;
21878;SDS011;27908;42.708;23.278;2023-12-04T08:27:34;7.38;;;3.08;;
21878;SDS011;27908;42.708;23.278;2023-12-04T08:30:00;8.20;;;3.03;;
21878;SDS011;27908;42.708;23.278;2023-12-04T08:32:25;7.80;;;3.10;;
21878;SDS011;27908;42.708;23.278;2023-12-04T08:34:54;10.65;;;4.82;;
21878;SDS011;27908;42.708;23.278;2023-12-04T08:37:22;7.10;;;2.87;;
21878;SDS011;27908;42.708;23.278;2023-12-04T08:39:47;9.20;;;3.22;;
21878;SDS011;27908;42.708;23.278;2023-12-04T08:42:13;10.30;;;4.40;;
21878;SDS011;27908;42.708;23.278;2023-12-04T08:44:38;8.85;;;3.50;;
21878;SDS011;27908;42.708;23.278;2023-12-04T08:47:05;7.13;;;2.80;;
21878;SDS011;27908;42.708;23.278;2023-12-04T08:49:31;9.13;;;3.38;;
21878;SDS011;27908;42.708;23.278;2023-12-04T08:51:57;9.35;;;3.90;;
21878;SDS011;27908;42.708;23.278;2023-12-04T08:54:23;9.23;;;3.85;;
21878;SDS011;27908;42.708;23.278;2023-12-04T08:56:49;9.38;;;3.00;;
21878;SDS011;27908;42.708;23.278;2023-12-04T08:59:15;6.13;;;2.33;;
21878;SDS011;27908;42.708;23.278;2023-12-04T09:01:41;9.07;;;2.80;;
21878;SDS011;27908;42.708;23.278;2023-12-04T09:04:08;6.57;;;2.78;;
21878;SDS011;27908;42.708;23.278;2023-12-04T09:06:34;7.83;;;2.93;;
21878;SDS011;27908;42.708;23.278;2023-12-04T09:08:59;8.40;;;3.30;;
21878;SDS011;27908;42.708;23.278;2023-12-04T09:11:25;8.50;;;3.07;;
21878;SDS011;27908;42.708;23.278;2023-12-04T09:13:50;6.50;;;2.63;;
21878;SDS011;27908;42.708;23.278;2023-12-04T09:16:16;9.85;;;2.97;;
21878;SDS011;27908;42.708;23.278;2023-12-04T09:18:42;13.27;;;4.53;;
21878;SDS011;27908;42.708;23.278;2023-12-04T09:21:07;8.68;;;3.67;;
21878;SDS011;27908;42.708;23.278;2023-12-04T09:23:33;10.40;;;2.93;;
21878;SDS011;27908;42.708;23.278;2023-12-04T09:26:00;9.50;;;3.58;;
21878;SDS011;27908;42.708;23.278;2023-12-04T09:28:25;7.87;;;3.50;;
21878;SDS011;27908;42.708;23.278;2023-12-04T09:30:51;8.43;;;3.47;;
21878;SDS011;27908;42.708;23.278;2023-12-04T09:33:16;8.13;;;2.70;;
21878;SDS011;27908;42.708;23.278;2023-12-04T09:35:42;8.07;;;2.90;;
21878;SDS011;27908;42.708;23.278;2023-12-04T09:38:07;12.93;;;3.20;;
21878;SDS011;27908;42.708;23.278;2023-12-04T09:40:33;7.07;;;2.92;;
21878;SDS011;27908;42.708;23.278;2023-12-04T09:42:58;11.13;;;3.20;;
21878;SDS011;27908;42.708;23.278;2023-12-04T09:45:24;6.67;;;2.37;;
21878;SDS011;27908;42.708;23.278;2023-12-04T09:47:50;9.20;;;2.35;;
21878;SDS011;27908;42.708;23.278;2023-12-04T09:50:16;10.38;;;4.65;;
21878;SDS011;27908;42.708;23.278;2023-12-04T09:52:46;14.18;;;5.78;;
21878;SDS011;27908;42.708;23.278;2023-12-04T09:55:14;6.00;;;2.33;;
21878;SDS011;27908;42.708;23.278;2023-12-04T09:57:41;7.25;;;3.10;;
21878;SDS011;27908;42.708;23.278;2023-12-04T10:00:07;8.02;;;3.10;;
21878;SDS011;27908;42.708;23.278;2023-12-04T10:02:35;10.15;;;2.60;;
21878;SDS011;27908;42.708;23.278;2023-12-04T10:05:01;6.05;;;2.15;;
21878;SDS011;27908;42.708;23.278;2023-12-04T10:07:30;9.27;;;3.92;;
21878;SDS011;27908;42.708;23.278;2023-12-04T10:09:55;7.72;;;2.22;;
21878;SDS011;27908;42.708;23.278;2023-12-04T10:12:21;7.90;;;2.50;;
21878;SDS011;27908;42.708;23.278;2023-12-04T10:15:08;7.38;;;3.20;;
21878;SDS011;27908;42.708;23.278;2023-12-04T10:17:35;9.50;;;3.65;;
21878;SDS011;27908;42.708;23.278;2023-12-04T10:22:36;9.45;;;3.00;;
21878;SDS011;27908;42.708;23.278;2023-12-04T10:25:13;16.13;;;5.55;;
21878;SDS011;27908;42.708;23.278;2023-12-04T10:27:39;10.68;;;2.97;;
21878;SDS011;27908;42.708;23.278;2023-12-04T10:30:05;8.77;;;3.60;;
21878;SDS011;27908;42.708;23.278;2023-12-04T10:32:35;8.15;;;3.78;;
21878;SDS011;27908;42.708;23.278;2023-12-04T10:35:05;7.80;;;3.42;;
21878;SDS011;27908;42.708;23.278;2023-12-04T10:37:35;5.67;;;2.10;;
21878;SDS011;27908;42.708;23.278;2023-12-04T10:40:01;6.03;;;2.47;;
21878;SDS011;27908;42.708;23.278;2023-12-04T10:42:28;7.32;;;2.90;;
21878;SDS011;27908;42.708;23.278;2023-12-04T10:44:58;7.72;;;2.95;;
21878;SDS011;27908;42.708;23.278;2023-12-04T10:47:24;6.78;;;2.78;;
21878;SDS011;27908;42.708;23.278;2023-12-04T10:49:51;7.43;;;3.10;;
21878;SDS011;27908;42.708;23.278;2023-12-04T10:52:18;8.20;;;3.20;;
21878;SDS011;27908;42.708;23.278;2023-12-04T10:54:45;7.45;;;3.03;;
21878;SDS011;27908;42.708;23.278;2023-12-04T10:57:11;9.15;;;2.75;;
21878;SDS011;27908;42.708;23.278;2023-12-04T10:59:41;8.02;;;3.25;;
21878;SDS011;27908;42.708;23.278;2023-12-04T11:02:08;8.03;;;2.73;;
21878;SDS011;27908;42.708;23.278;2023-12-04T11:04:45;7.63;;;2.25;;
21878;SDS011;27908;42.708;23.278;2023-12-04T11:07:16;9.60;;;3.70;;
21878;SDS011;27908;42.708;23.278;2023-12-04T11:09:43;10.38;;;3.42;;
21878;SDS011;27908;42.708;23.278;2023-12-04T11:12:11;12.45;;;3.80;;
21878;SDS011;27908;42.708;23.278;2023-12-04T11:14:42;8.20;;;3.40;;
21878;SDS011;27908;42.708;23.278;2023-12-04T11:17:12;12.02;;;3.80;;
21878;SDS011;27908;42.708;23.278;2023-12-04T11:22:14;7.13;;;3.08;;
21878;SDS011;27908;42.708;23.278;2023-12-04T11:24:45;6.30;;;2.63;;
21878;SDS011;27908;42.708;23.278;2023-12-04T11:27:13;8.03;;;3.20;;
21878;SDS011;27908;42.708;23.278;2023-12-04T11:29:41;8.93;;;3.67;;
21878;SDS011;27908;42.708;23.278;2023-12-04T11:32:07;9.05;;;3.42;;
21878;SDS011;27908;42.708;23.278;2023-12-04T11:34:34;12.30;;;4.10;;
21878;SDS011;27908;42.708;23.278;2023-12-04T11:37:00;8.40;;;3.53;;
21878;SDS011;27908;42.708;23.278;2023-12-04T11:39:27;9.18;;;3.90;;
21878;SDS011;27908;42.708;23.278;2023-12-04T11:41:53;9.67;;;4.30;;
21878;SDS011;27908;42.708;23.278;2023-12-04T11:44:19;10.27;;;3.75;;
21878;SDS011;27908;42.708;23.278;2023-12-04T11:46:54;13.67;;;3.83;;
21878;SDS011;27908;42.708;23.278;2023-12-04T11:51:50;11.95;;;4.60;;
21878;SDS011;27908;42.708;23.278;2023-12-04T11:54:17;8.07;;;3.88;;
21878;SDS011;27908;42.708;23.278;2023-12-04T11:59:39;8.47;;;3.53;;
21878;SDS011;27908;42.708;23.278;2023-12-04T12:02:08;8.25;;;3.15;;
21878;SDS011;27908;42.708;23.278;2023-12-04T12:04:35;11.18;;;4.00;;
21878;SDS011;27908;42.708;23.278;2023-12-04T12:07:00;11.33;;;4.40;;
21878;SDS011;27908;42.708;23.278;2023-12-04T12:09:27;9.07;;;4.28;;
21878;SDS011;27908;42.708;23.278;2023-12-04T12:11:54;9.43;;;4.45;;
21878;SDS011;27908;42.708;23.278;2023-12-04T12:14:23;11.80;;;4.07;;
21878;SDS011;27908;42.708;23.278;2023-12-04T12:16:48;12.40;;;4.68;;
21878;SDS011;27908;42.708;23.278;2023-12-04T12:19:14;9.70;;;3.40;;
21878;SDS011;27908;42.708;23.278;2023-12-04T12:21:40;8.00;;;3.42;;
21878;SDS011;27908;42.708;23.278;2023-12-04T12:24:06;9.80;;;3.73;;
21878;SDS011;27908;42.708;23.278;2023-12-04T12:26:32;12.27;;;5.05;;
21878;SDS011;27908;42.708;23.278;2023-12-04T12:28:58;12.18;;;4.47;;
21878;SDS011;27908;42.708;23.278;2023-12-04T12:31:24;10.93;;;4.43;;
21878;SDS011;27908;42.708;23.278;2023-12-04T12:33:50;12.13;;;4.90;;
21878;SDS011;27908;42.708;23.278;2023-12-04T12:36:17;11.93;;;5.07;;
21878;SDS011;27908;42.708;23.278;2023-12-04T12:38:43;11.55;;;4.80;;
21878;SDS011;27908;42.708;23.278;2023-12-04T12:41:14;10.50;;;4.85;;
21878;SDS011;27908;42.708;23.278;2023-12-04T12:43:43;12.20;;;4.77;;
21878;SDS011;27908;42.708;23.278;2023-12-04T12:46:09;10.88;;;4.20;;
21878;SDS011;27908;42.708;23.278;2023-12-04T12:48:35;10.98;;;4.47;;
21878;SDS011;27908;42.708;23.278;2023-12-04T12:51:02;12.13;;;4.60;;
21878;SDS011;27908;42.708;23.278;2023-12-04T12:53:28;13.07;;;4.82;;
21878;SDS011;27908;42.708;23.278;2023-12-04T12:55:53;14.73;;;6.27;;
21878;SDS011;27908;42.708;23.278;2023-12-04T12:58:19;12.48;;;5.45;;
21878;SDS011;27908;42.708;23.278;2023-12-04T13:00:45;12.70;;;5.37;;
21878;SDS011;27908;42.708;23.278;2023-12-04T13:03:15;11.75;;;5.78;;
21878;SDS011;27908;42.708;23.278;2023-12-04T13:05:41;11.32;;;5.22;;
21878;SDS011;27908;42.708;23.278;2023-12-04T13:08:07;12.30;;;5.73;;
21878;SDS011;27908;42.708;23.278;2023-12-04T13:10:32;11.27;;;5.20;;
21878;SDS011;27908;42.708;23.278;2023-12-04T13:12:58;14.37;;;5.77;;
21878;SDS011;27908;42.708;23.278;2023-12-04T13:15:25;11.57;;;5.05;;
21878;SDS011;27908;42.708;23.278;2023-12-04T13:17:51;14.65;;;5.90;;
21878;SDS011;27908;42.708;23.278;2023-12-04T13:20:16;16.63;;;6.77;;
21878;SDS011;27908;42.708;23.278;2023-12-04T13:22:42;17.20;;;6.97;;
21878;SDS011;27908;42.708;23.278;2023-12-04T13:25:08;12.03;;;5.30;;
21878;SDS011;27908;42.708;23.278;2023-12-04T13:27:35;13.13;;;5.85;;
21878;SDS011;27908;42.708;23.278;2023-12-04T13:30:04;11.10;;;4.28;;
21878;SDS011;27908;42.708;23.278;2023-12-04T13:32:31;11.13;;;4.68;;
21878;SDS011;27908;42.708;23.278;2023-12-04T13:34:58;13.40;;;5.80;;
21878;SDS011;27908;42.708;23.278;2023-12-04T13:37:24;11.95;;;4.70;;
21878;SDS011;27908;42.708;23.278;2023-12-04T13:39:52;15.05;;;5.72;;
21878;SDS011;27908;42.708;23.278;2023-12-04T13:42:23;20.60;;;6.53;;
21878;SDS011;27908;42.708;23.278;2023-12-04T13:45:10;13.80;;;6.22;;
21878;SDS011;27908;42.708;23.278;2023-12-04T13:47:37;13.85;;;7.00;;
21878;SDS011;27908;42.708;23.278;2023-12-04T13:50:04;16.58;;;6.82;;
21878;SDS011;27908;42.708;23.278;2023-12-04T13:52:31;8.57;;;3.90;;
21878;SDS011;27908;42.708;23.278;2023-12-04T13:54:59;18.07;;;7.53;;
21878;SDS011;27908;42.708;23.278;2023-12-04T13:57:25;20.80;;;7.80;;
21878;SDS011;27908;42.708;23.278;2023-12-04T14:00:00;17.15;;;6.82;;
21878;SDS011;27908;42.708;23.278;2023-12-04T14:02:26;16.67;;;8.35;;
21878;SDS011;27908;42.708;23.278;2023-12-04T14:04:52;15.15;;;7.20;;
21878;SDS011;27908;42.708;23.278;2023-12-04T14:07:18;20.03;;;7.67;;
21878;SDS011;27908;42.708;23.278;2023-12-04T14:09:44;28.08;;;9.32;;
21878;SDS011;27908;42.708;23.278;2023-12-04T14:12:10;35.50;;;9.33;;
21878;SDS011;27908;42.708;23.278;2023-12-04T14:14:36;9.35;;;3.65;;
21878;SDS011;27908;42.708;23.278;2023-12-04T14:17:05;9.52;;;3.97;;
21878;SDS011;27908;42.708;23.278;2023-12-04T14:19:32;25.92;;;10.63;;
21878;SDS011;27908;42.708;23.278;2023-12-04T14:21:58;22.23;;;9.63;;
21878;SDS011;27908;42.708;23.278;2023-12-04T14:24:23;29.92;;;13.25;;
21878;SDS011;27908;42.708;23.278;2023-12-04T14:26:49;21.07;;;9.70;;
21878;SDS011;27908;42.708;23.278;2023-12-04T14:29:14;23.80;;;10.13;;
21878;SDS011;27908;42.708;23.278;2023-12-04T14:31:40;22.77;;;9.23;;
21878;SDS011;27908;42.708;23.278;2023-12-04T14:34:06;26.13;;;12.80;;